createdAt,value
2018-06-18T00:00:59.250Z,4.53
2018-06-18T00:03:36.566Z,5.67
2018-06-18T00:06:13.032Z,6.70
2018-06-18T00:08:49.489Z,9.17
2018-06-18T00:11:26.237Z,5.00
2018-06-18T00:14:02.894Z,4.20
2018-06-18T00:16:42.504Z,6.63
2018-06-18T00:19:20.513Z,4.37
2018-06-18T00:21:56.771Z,3.47
2018-06-18T00:24:34.663Z,5.73
2018-06-18T00:27:11.063Z,4.50
2018-06-18T00:29:47.712Z,6.93
2018-06-18T00:32:24.185Z,6.40
2018-06-18T00:35:00.964Z,3.90
2018-06-18T00:50:42.276Z,4.00
2018-06-18T00:53:18.789Z,5.70
2018-06-18T00:56:08.746Z,4.70
2018-06-18T00:58:45.400Z,5.93
2018-06-18T01:01:22.183Z,4.20
2018-06-18T01:03:58.740Z,5.97
2018-06-18T01:06:34.935Z,5.93
2018-06-18T01:09:12.736Z,4.40
2018-06-18T01:11:50.024Z,8.10
2018-06-18T01:14:27.235Z,4.40
2018-06-18T01:17:04.218Z,5.63
2018-06-18T01:19:40.450Z,6.20
2018-06-18T01:22:17.514Z,6.70
2018-06-18T01:25:04.354Z,4.97
2018-06-18T01:27:41.958Z,6.00
2018-06-18T01:30:19.169Z,4.47
2018-06-18T01:32:55.253Z,6.13
2018-06-18T01:35:31.970Z,4.07
2018-06-18T01:38:08.747Z,8.93
2018-06-18T01:40:46.040Z,6.93
2018-06-18T01:43:22.062Z,4.77
2018-06-18T01:45:58.294Z,6.70
2018-06-18T01:48:36.511Z,4.77
2018-06-18T01:51:13.351Z,5.50
2018-06-18T01:53:50.011Z,5.93
2018-06-18T01:56:26.641Z,10.20
2018-06-18T01:59:03.133Z,5.73
2018-06-18T02:01:39.411Z,5.23
2018-06-18T02:04:16.039Z,4.50
2018-06-18T02:06:53.667Z,4.40
2018-06-18T02:09:31.092Z,4.90
2018-06-18T02:12:08.265Z,7.27
2018-06-18T02:14:44.583Z,5.07
2018-06-18T02:17:21.746Z,4.70
2018-06-18T02:19:58.119Z,9.30
2018-06-18T02:22:34.617Z,5.40
2018-06-18T02:25:11.948Z,10.37
2018-06-18T02:27:54.303Z,6.20
2018-06-18T02:30:35.741Z,7.33
2018-06-18T02:33:17.253Z,4.97
2018-06-18T02:36:00.900Z,5.10
2018-06-18T02:39:42.611Z,6.23
2018-06-18T02:42:19.332Z,7.70
2018-06-18T02:44:56.027Z,5.53
2018-06-18T02:47:32.351Z,6.63
2018-06-18T02:50:09.576Z,5.33
2018-06-18T02:52:45.818Z,6.70
2018-06-18T02:55:25.522Z,7.47
2018-06-18T02:58:02.347Z,6.03
2018-06-18T03:00:38.982Z,6.37
2018-06-18T03:03:17.417Z,7.00
2018-06-18T03:05:53.512Z,6.23
2018-06-18T03:08:30.311Z,5.67
2018-06-18T03:11:07.160Z,5.07
2018-06-18T03:13:44.114Z,6.13
2018-06-18T03:16:20.561Z,5.20
2018-06-18T03:19:02.956Z,6.17
2018-06-18T03:21:44.364Z,5.57
2018-06-18T03:24:26.021Z,5.40
2018-06-18T03:27:08.802Z,6.43
2018-06-18T03:29:45.449Z,5.77
2018-06-18T03:32:23.458Z,5.40
2018-06-18T03:35:00.059Z,5.83
2018-06-18T03:37:36.540Z,5.90
2018-06-18T03:40:13.206Z,6.70
2018-06-18T03:42:49.744Z,5.60
2018-06-18T03:45:28.404Z,10.03
2018-06-18T03:48:10.200Z,6.20
2018-06-18T03:50:46.500Z,6.17
2018-06-18T03:53:22.916Z,7.10
2018-06-18T03:56:01.251Z,5.90
2018-06-18T03:58:38.427Z,5.27
2018-06-18T04:01:42.384Z,5.93
2018-06-18T04:04:26.239Z,8.70
2018-06-18T04:07:07.751Z,8.40
2018-06-18T04:12:30.304Z,11.87
2018-06-18T04:15:07.357Z,10.27
2018-06-18T04:17:44.703Z,7.27
2018-06-18T04:20:20.944Z,8.97
2018-06-18T04:22:58.702Z,8.53
2018-06-18T04:25:35.016Z,9.67
2018-06-18T04:28:12.544Z,6.77
2018-06-18T04:30:49.610Z,6.07
2018-06-18T04:33:28.772Z,6.40
2018-06-18T04:36:05.149Z,7.57
2018-06-18T04:38:41.699Z,6.80
2018-06-18T04:41:20.157Z,9.00
2018-06-18T04:44:05.438Z,8.70
2018-06-18T04:47:53.776Z,6.67
2018-06-18T04:50:36.027Z,6.47
2018-06-18T04:53:15.600Z,8.47
2018-06-18T04:55:56.679Z,6.40
2018-06-18T04:58:36.759Z,9.83
2018-06-18T05:01:27.034Z,9.87
2018-06-18T05:04:03.748Z,7.13
2018-06-18T05:06:40.549Z,7.83
2018-06-18T05:09:43.341Z,8.23
2018-06-18T05:12:22.046Z,6.97
2018-06-18T05:15:00.826Z,7.10
2018-06-18T05:17:42.573Z,8.37
2018-06-18T05:20:22.654Z,6.30
2018-06-18T05:23:02.793Z,8.50
2018-06-18T05:25:43.666Z,9.60
2018-06-18T05:28:22.364Z,7.90
2018-06-18T05:31:03.648Z,7.63
2018-06-18T05:33:41.474Z,6.97
2018-06-18T05:36:27.839Z,7.80
2018-06-18T05:39:06.669Z,7.10
2018-06-18T05:41:44.687Z,6.93
2018-06-18T05:44:26.987Z,6.53
2018-06-18T05:47:07.474Z,6.63
2018-06-18T05:49:43.704Z,7.33
2018-06-18T05:52:23.156Z,7.90
2018-06-18T05:55:04.013Z,7.77
2018-06-18T05:57:43.189Z,7.90
2018-06-18T06:00:25.822Z,6.23
2018-06-18T06:03:05.889Z,7.17
2018-06-18T06:05:46.307Z,8.43
2018-06-18T06:08:31.844Z,5.87
2018-06-18T06:11:08.609Z,6.97
2018-06-18T06:13:47.729Z,6.13
2018-06-18T06:16:26.471Z,5.70
2018-06-18T06:19:07.922Z,5.90
2018-06-18T06:21:47.639Z,8.03
2018-06-18T06:24:26.892Z,5.67
2018-06-18T06:27:09.904Z,5.90
2018-06-18T06:29:49.849Z,7.60
2018-06-18T06:32:29.965Z,6.30
2018-06-18T06:35:26.941Z,8.07
2018-06-18T06:38:08.402Z,5.77
2018-06-18T06:40:48.735Z,5.73
2018-06-18T06:43:35.151Z,6.00
2018-06-18T06:46:11.950Z,7.77
2018-06-18T06:48:53.761Z,8.07
2018-06-18T06:51:32.348Z,8.17
2018-06-18T06:54:11.726Z,6.23
2018-06-18T06:56:53.722Z,6.07
2018-06-18T06:59:31.197Z,4.80
2018-06-18T07:02:11.093Z,5.30
2018-06-18T07:04:53.710Z,7.03
2018-06-18T07:07:32.960Z,6.20
2018-06-18T07:10:12.444Z,7.27
2018-06-18T07:38:54.489Z,8.43
2018-06-18T07:41:37.307Z,6.27
2018-06-18T07:44:17.807Z,6.87
2018-06-18T07:47:03.209Z,5.40
2018-06-18T07:49:41.250Z,6.93
2018-06-18T07:52:20.554Z,7.97
2018-06-18T07:55:01.962Z,5.90
2018-06-18T07:57:39.975Z,7.47
2018-06-18T08:00:19.995Z,5.93
2018-06-18T08:03:03.130Z,8.30
2018-06-18T08:05:40.965Z,8.07
2018-06-18T08:08:23.802Z,11.43
2018-06-18T08:11:00.360Z,6.77
2018-06-18T08:16:27.514Z,6.07
2018-06-18T08:19:06.922Z,4.87
2018-06-18T08:21:49.802Z,9.17
2018-06-18T08:24:26.107Z,7.90
2018-06-18T08:27:04.135Z,8.70
2018-06-18T08:29:46.117Z,6.27
2018-06-18T08:32:23.121Z,7.60
2018-06-18T08:35:03.401Z,7.90
2018-06-18T08:37:45.280Z,6.13
2018-06-18T08:40:25.311Z,7.37
2018-06-18T08:43:09.653Z,5.80
2018-06-18T08:45:46.352Z,4.70
2018-06-18T08:48:35.683Z,12.60
2018-06-18T08:51:21.933Z,8.70
2018-06-18T08:54:07.346Z,6.17
2018-06-18T08:56:50.139Z,5.03
2018-06-18T08:59:36.036Z,6.23
2018-06-18T09:02:12.666Z,7.10
2018-06-18T09:07:45.449Z,6.20
2018-06-18T09:10:32.303Z,7.10
2018-06-18T09:13:08.969Z,5.80
2018-06-18T09:15:48.399Z,6.30
2018-06-18T09:18:27.801Z,4.00
2018-06-18T09:21:08.822Z,7.13
2018-06-18T09:23:49.089Z,7.33
2018-06-18T09:26:32.108Z,6.63
2018-06-18T09:29:10.053Z,4.90
2018-06-18T09:31:54.143Z,8.13
2018-06-18T09:34:39.940Z,7.60
2018-06-18T09:37:22.247Z,8.27
2018-06-18T09:40:09.881Z,6.17
2018-06-18T09:42:53.532Z,3.13
2018-06-18T09:45:40.509Z,6.37
2018-06-18T09:48:16.959Z,3.87
2018-06-18T09:53:51.839Z,3.90
2018-06-18T09:56:41.401Z,5.83
2018-06-18T09:59:22.864Z,4.37
2018-06-18T10:02:04.101Z,5.70
2018-06-18T10:04:55.878Z,4.47
2018-06-18T10:07:41.316Z,4.53
2018-06-18T10:10:17.690Z,5.83
2018-06-18T10:12:55.182Z,5.77
2018-06-18T10:15:41.663Z,4.87
2018-06-18T10:18:18.501Z,4.87
2018-06-18T10:20:56.363Z,5.50
2018-06-18T10:23:41.969Z,5.23
2018-06-18T10:26:22.976Z,9.70
2018-06-18T10:29:00.338Z,5.93
2018-06-18T10:31:44.436Z,4.47
2018-06-18T10:34:25.671Z,4.00
2018-06-18T10:37:06.962Z,4.07
2018-06-18T10:39:54.998Z,5.27
2018-06-18T10:42:41.126Z,4.30
2018-06-18T10:45:17.156Z,4.77
2018-06-18T10:47:59.434Z,4.97
2018-06-18T10:50:42.540Z,4.13
2018-06-18T10:53:19.868Z,4.43
2018-06-18T10:56:03.470Z,4.60
2018-06-18T10:58:41.466Z,3.73
2018-06-18T11:01:31.370Z,4.40
2018-06-18T11:04:15.544Z,4.93
2018-06-18T11:06:52.411Z,4.37
2018-06-18T11:09:29.296Z,6.43
2018-06-18T11:12:17.737Z,5.60
2018-06-18T11:15:05.415Z,4.47
2018-06-18T11:17:48.944Z,4.07
2018-06-18T11:23:20.676Z,4.77
2018-06-18T11:26:04.095Z,7.27
2018-06-18T11:28:46.746Z,4.83
2018-06-18T11:31:26.937Z,3.33
2018-06-18T11:34:09.007Z,7.07
2018-06-18T11:36:45.070Z,4.03
2018-06-18T11:39:26.983Z,3.67
2018-06-18T11:42:07.044Z,3.43
2018-06-18T11:44:55.601Z,4.37
2018-06-18T11:47:31.971Z,3.20
2018-06-18T11:50:08.229Z,4.80
2018-06-18T11:52:50.554Z,3.70
2018-06-18T11:55:27.914Z,4.13
2018-06-18T11:58:08.290Z,3.80
2018-06-18T12:00:53.724Z,2.93
2018-06-18T12:04:36.141Z,8.10
2018-06-18T12:07:17.837Z,4.27
2018-06-18T12:09:54.996Z,3.77
2018-06-18T12:12:35.162Z,3.73
2018-06-18T12:15:12.101Z,3.63
2018-06-18T12:17:48.655Z,3.10
2018-06-18T12:20:31.365Z,3.00
2018-06-18T12:23:12.075Z,3.50
2018-06-18T12:26:01.851Z,7.40
2018-06-18T12:28:41.711Z,3.67
2018-06-18T12:31:35.693Z,5.37
2018-06-18T12:34:15.323Z,3.07
2018-06-18T12:36:52.160Z,3.70
2018-06-18T12:39:32.851Z,4.37
2018-06-18T12:42:18.072Z,4.10
2018-06-18T12:47:51.136Z,3.63
2018-06-18T12:50:36.714Z,3.30
2018-06-18T12:53:23.408Z,3.67
2018-06-18T12:56:04.847Z,4.43
2018-06-18T12:58:55.272Z,3.83
2018-06-18T13:01:43.381Z,4.10
2018-06-18T13:04:20.143Z,3.20
2018-06-18T13:07:03.931Z,3.27
2018-06-18T13:09:39.557Z,3.17
2018-06-18T13:12:17.199Z,4.07
2018-06-18T13:14:57.516Z,3.83
2018-06-18T13:17:37.817Z,3.07
2018-06-18T13:20:20.009Z,3.10
2018-06-18T13:22:58.961Z,8.03
2018-06-18T13:25:39.933Z,3.23
2018-06-18T13:28:19.910Z,2.03
2018-06-18T13:31:03.071Z,2.60
2018-06-18T13:33:42.533Z,4.03
2018-06-18T13:36:25.665Z,4.77
2018-06-18T13:39:07.052Z,3.57
2018-06-18T13:41:50.714Z,3.03
2018-06-18T13:44:41.471Z,3.87
2018-06-18T13:47:30.760Z,3.27
2018-06-18T13:50:06.610Z,2.97
2018-06-18T13:52:43.814Z,3.83
2018-06-18T13:55:25.281Z,4.07
2018-06-18T13:58:04.763Z,4.13
2018-06-18T14:00:47.459Z,2.73
2018-06-18T14:03:23.789Z,4.50
2018-06-18T14:06:02.770Z,3.37
2018-06-18T14:08:48.459Z,2.63
2018-06-18T14:11:26.430Z,2.63
2018-06-18T14:16:28.992Z,2.90
2018-06-18T14:21:21.622Z,3.60
2018-06-18T14:26:46.378Z,4.13
2018-06-18T14:29:43.016Z,3.70
2018-06-18T14:32:28.742Z,3.87
2018-06-18T14:35:17.065Z,3.30
2018-06-18T15:02:14.699Z,1.30
2018-06-18T15:04:58.323Z,3.37
2018-06-18T15:07:38.133Z,2.80
2018-06-18T15:13:12.736Z,3.03
2018-06-18T15:18:42.771Z,2.47
2018-06-18T15:21:37.653Z,5.10
2018-06-18T15:24:18.199Z,3.00
2018-06-18T15:26:55.394Z,3.33
2018-06-18T15:29:37.146Z,2.60
2018-06-18T15:32:13.524Z,3.30
2018-06-18T15:34:54.224Z,3.60
2018-06-18T15:37:35.422Z,3.53
2018-06-18T15:40:13.359Z,3.37
2018-06-18T15:42:55.334Z,3.70
2018-06-18T15:45:35.562Z,3.20
2018-06-18T15:48:20.261Z,4.07
2018-06-18T15:50:59.929Z,2.53
2018-06-18T15:53:36.260Z,3.30
2018-06-18T15:56:16.855Z,2.70
2018-06-18T16:23:03.784Z,4.10
2018-06-18T16:25:40.440Z,4.45
2018-06-18T16:28:21.236Z,2.92
2018-06-18T16:31:00.888Z,2.95
2018-06-18T16:33:40.202Z,3.15
2018-06-18T16:36:24.990Z,2.67
2018-06-18T16:39:01.595Z,3.60
2018-06-18T16:41:41.978Z,2.92
2018-06-18T16:44:21.552Z,2.60
2018-06-18T16:52:00.887Z,3.17
2018-06-18T16:54:44.975Z,3.08
2018-06-18T16:57:23.516Z,3.15
2018-06-18T17:00:09.273Z,3.10
2018-06-18T17:02:46.910Z,2.67
2018-06-18T17:05:25.058Z,2.67
2018-06-18T17:08:11.015Z,2.55
2018-06-18T17:10:47.381Z,2.80
2018-06-18T17:13:30.904Z,2.93
2018-06-18T17:16:07.300Z,2.90
2018-06-18T17:18:47.657Z,2.27
2018-06-18T17:21:28.726Z,2.93
2018-06-18T17:24:09.604Z,3.27
2018-06-18T17:26:52.798Z,2.70
2018-06-18T17:29:29.894Z,4.00
2018-06-18T17:32:12.103Z,3.90
2018-06-18T17:34:51.264Z,4.27
2018-06-18T17:37:30.557Z,2.90
2018-06-18T17:40:12.035Z,3.00
2018-06-18T17:42:52.330Z,4.03
2018-06-18T17:45:37.245Z,3.10
2018-06-18T17:48:15.434Z,3.50
2018-06-18T17:50:51.984Z,3.07
2018-06-18T17:53:35.540Z,3.10
2018-06-18T17:56:14.090Z,2.60
2018-06-18T17:58:53.681Z,2.90
2018-06-18T18:01:35.969Z,3.60
2018-06-18T18:04:12.520Z,2.72
2018-06-18T18:06:52.068Z,2.75
2018-06-18T18:09:31.979Z,2.60
2018-06-18T18:12:12.526Z,3.15
2018-06-18T18:14:52.680Z,2.70
2018-06-18T18:17:35.648Z,2.30
2018-06-18T18:20:15.476Z,2.40
2018-06-18T18:23:01.943Z,4.55
2018-06-18T18:25:38.698Z,2.67
2018-06-18T18:28:18.065Z,2.55
2018-06-18T18:41:37.764Z,3.40
2018-06-18T18:44:21.131Z,2.40
2018-06-18T18:46:58.287Z,2.53
2018-06-18T18:49:38.093Z,3.63
2018-06-18T18:52:20.599Z,2.40
2018-06-18T18:55:44.351Z,3.20
2018-06-18T18:58:36.664Z,2.93
2018-06-18T19:01:28.639Z,4.80
2018-06-18T19:04:07.114Z,2.70
2018-06-18T19:06:43.612Z,3.03
2018-06-18T19:09:25.799Z,3.63
2018-06-18T19:12:03.118Z,3.73
2018-06-18T19:14:43.351Z,4.70
2018-06-18T19:17:26.369Z,3.27
2018-06-18T19:20:09.832Z,2.97
2018-06-18T19:22:46.685Z,2.77
2018-06-18T19:25:24.083Z,3.53
2018-06-18T19:28:06.019Z,3.37
2018-06-18T19:30:47.137Z,2.83
2018-06-18T19:33:27.544Z,4.23
2018-06-18T19:36:04.785Z,2.90
2018-06-18T19:38:44.321Z,3.20
2018-06-18T19:41:24.426Z,2.83
2018-06-18T19:44:03.618Z,2.53
2018-06-18T19:46:47.180Z,2.83
2018-06-18T19:49:26.922Z,3.20
2018-06-18T19:52:05.209Z,3.30
2018-06-18T19:54:51.075Z,2.80
2018-06-18T19:57:27.558Z,3.40
2018-06-18T20:00:07.553Z,4.10
2018-06-18T20:02:48.224Z,3.30
2018-06-18T20:05:30.677Z,3.63
2018-06-18T20:08:11.548Z,2.90
2018-06-18T20:10:48.225Z,3.47
2018-06-18T20:13:30.694Z,3.07
2018-06-18T20:16:11.083Z,5.67
2018-06-18T20:18:49.605Z,4.33
2018-06-18T20:21:31.341Z,3.87
2018-06-18T20:24:11.403Z,4.07
2018-06-18T20:26:51.022Z,3.73
2018-06-18T20:29:32.102Z,2.80
2018-06-18T20:32:11.046Z,4.40
2018-06-18T20:34:53.126Z,4.40
2018-06-18T20:37:31.088Z,3.73
2018-06-18T20:40:10.736Z,3.53
2018-06-18T20:42:53.460Z,3.97
2018-06-18T20:45:34.764Z,4.33
2018-06-18T20:48:12.178Z,3.30
2018-06-18T20:50:49.353Z,5.47
2018-06-18T20:53:27.327Z,3.63
2018-06-18T20:56:05.042Z,3.30
2018-06-18T20:58:43.324Z,3.87
2018-06-18T21:01:20.162Z,4.87
2018-06-18T21:03:56.579Z,4.57
2018-06-18T21:06:38.716Z,7.40
2018-06-18T21:09:15.234Z,9.27
2018-06-18T21:11:56.240Z,6.80
2018-06-18T21:14:32.778Z,6.30
2018-06-18T21:17:09.464Z,7.23
2018-06-18T21:19:46.036Z,6.03
2018-06-18T21:22:22.316Z,6.23
2018-06-18T21:24:58.602Z,6.57
2018-06-18T21:27:38.734Z,6.83
2018-06-18T21:30:16.582Z,7.53
2018-06-18T21:32:53.222Z,4.63
2018-06-18T21:35:30.125Z,6.37
2018-06-18T21:38:06.030Z,5.27
2018-06-18T21:40:42.405Z,4.87
2018-06-18T21:43:22.643Z,3.20
2018-06-18T21:45:59.134Z,4.03
2018-06-18T21:48:35.771Z,3.57
2018-06-18T21:51:12.900Z,3.37
2018-06-18T21:53:50.044Z,3.30
2018-06-18T21:56:26.292Z,3.40
2018-06-18T21:59:05.479Z,7.23
2018-06-18T22:01:44.477Z,8.53
2018-06-18T22:04:20.938Z,5.00
2018-06-18T22:07:00.230Z,3.63
2018-06-18T22:09:37.036Z,4.30
2018-06-18T22:12:27.943Z,3.37
2018-06-18T22:15:05.168Z,3.03
2018-06-18T22:17:41.603Z,4.50
2018-06-18T22:20:20.680Z,3.87
2018-06-18T22:22:58.190Z,4.90
2018-06-18T22:25:35.495Z,3.50
2018-06-18T22:28:18.659Z,3.70
2018-06-18T22:30:55.223Z,3.97
2018-06-18T22:33:32.804Z,4.00
2018-06-18T22:36:09.122Z,4.63
2018-06-18T22:38:45.707Z,4.30
2018-06-18T22:41:26.628Z,3.70
2018-06-18T22:44:04.125Z,3.50
2018-06-18T22:46:40.927Z,9.37
2018-06-18T22:49:17.654Z,5.07
2018-06-18T22:51:54.269Z,4.20
2018-06-18T22:54:29.780Z,4.23
2018-06-18T22:57:07.235Z,5.60
2018-06-18T22:59:44.263Z,7.70
2018-06-18T23:02:24.199Z,5.07
2018-06-18T23:05:03.319Z,7.07
2018-06-18T23:07:39.665Z,5.53
2018-06-18T23:10:16.052Z,9.57
2018-06-18T23:12:53.308Z,6.53
2018-06-18T23:15:30.271Z,6.97
2018-06-18T23:18:07.791Z,8.43
2018-06-18T23:20:45.771Z,7.73
2018-06-18T23:23:22.294Z,8.83
2018-06-18T23:25:59.039Z,5.00
2018-06-18T23:28:48.687Z,4.77
2018-06-18T23:31:25.707Z,5.77
2018-06-18T23:34:03.232Z,8.07
2018-06-18T23:36:40.411Z,7.80
2018-06-18T23:39:16.881Z,4.73
2018-06-18T23:41:55.266Z,4.10
2018-06-18T23:44:31.615Z,7.23
2018-06-18T23:47:08.310Z,3.90
2018-06-18T23:49:45.217Z,3.70
2018-06-18T23:52:21.604Z,5.07
2018-06-18T23:54:57.827Z,3.90
2018-06-18T23:57:36.228Z,5.20
